createdAt,value
2019-04-20T00:02:04.499Z,11.22
2019-04-20T00:04:33.499Z,9.63
2019-04-20T00:06:59.183Z,13.30
2019-04-20T00:09:33.219Z,10.70
2019-04-20T00:12:10.932Z,8.15
2019-04-20T00:14:35.769Z,13.40
2019-04-20T00:17:03.101Z,9.65
2019-04-20T00:19:40.011Z,10.18
2019-04-20T00:22:08.045Z,10.38
2019-04-20T00:24:42.688Z,10.38
2019-04-20T00:27:37.900Z,10.78
2019-04-20T00:29:58.808Z,9.60
2019-04-20T00:32:23.244Z,10.53
2019-04-20T00:34:45.983Z,9.43
2019-04-20T00:37:17.070Z,13.00
2019-04-20T00:39:44.837Z,11.03
2019-04-20T00:42:16.206Z,12.50
2019-04-20T00:44:45.998Z,12.40
2019-04-20T00:47:29.529Z,18.00
2019-04-20T00:49:57.805Z,15.83
2019-04-20T00:52:30.975Z,14.15
2019-04-20T00:54:45.694Z,8.88
2019-04-20T00:57:24.667Z,10.40
2019-04-20T01:00:04.703Z,11.55
2019-04-20T01:02:29.978Z,9.73
2019-04-20T01:05:06.847Z,7.37
2019-04-20T01:07:33.136Z,9.28
2019-04-20T01:10:08.979Z,9.08
2019-04-20T01:12:40.429Z,9.03
2019-04-20T01:15:16.735Z,10.38
2019-04-20T01:17:41.466Z,10.00
2019-04-20T01:20:11.844Z,12.68
2019-04-20T01:22:50.717Z,16.77
2019-04-20T01:25:18.142Z,12.68
2019-04-20T01:28:03.457Z,9.15
2019-04-20T01:30:21.082Z,12.95
2019-04-20T01:33:00.071Z,10.55
2019-04-20T01:35:31.984Z,9.50
2019-04-20T01:38:00.200Z,10.48
2019-04-20T01:40:16.975Z,9.55
2019-04-20T01:42:46.734Z,9.68
2019-04-20T01:45:24.797Z,15.90
2019-04-20T01:47:51.320Z,15.88
2019-04-20T01:50:24.662Z,11.45
2019-04-20T01:53:01.727Z,9.93
2019-04-20T01:55:43.708Z,11.25
2019-04-20T01:58:30.290Z,10.40
2019-04-20T02:00:44.980Z,11.70
2019-04-20T02:03:36.878Z,13.60
2019-04-20T02:06:09.825Z,13.05
2019-04-20T02:08:35.824Z,12.43
2019-04-20T02:11:07.405Z,13.25
2019-04-20T02:13:43.583Z,13.65
2019-04-20T02:16:15.853Z,12.47
2019-04-20T02:18:51.424Z,13.68
2019-04-20T02:21:25.736Z,13.38
2019-04-20T02:23:46.406Z,11.43
2019-04-20T02:26:07.230Z,15.88
2019-04-20T02:29:00.866Z,14.80
2019-04-20T02:34:17.943Z,16.15
2019-04-20T02:42:05.422Z,15.20
2019-04-20T02:44:35.005Z,13.03
2019-04-20T02:47:06.936Z,16.48
2019-04-20T02:52:04.935Z,14.58
2019-04-20T02:57:07.389Z,13.18
2019-04-20T02:59:54.189Z,16.42
2019-04-20T03:01:51.753Z,14.45
2019-04-20T03:04:04.877Z,16.20
2019-04-20T03:06:53.364Z,15.00
2019-04-20T03:09:33.010Z,15.23
2019-04-20T03:14:22.824Z,14.80
2019-04-20T03:16:55.034Z,15.60
2019-04-20T03:19:25.048Z,16.87
2019-04-20T03:22:05.244Z,21.50
2019-04-20T03:24:37.575Z,17.40
2019-04-20T03:26:59.520Z,19.15
2019-04-20T03:29:45.669Z,14.85
2019-04-20T03:37:20.414Z,15.65
2019-04-20T03:39:40.501Z,15.80
2019-04-20T03:41:58.697Z,15.55
2019-04-20T03:44:30.684Z,17.55
2019-04-20T03:47:02.828Z,16.35
2019-04-20T03:49:55.025Z,14.13
2019-04-20T03:52:28.818Z,16.57
2019-04-20T03:54:54.344Z,17.85
2019-04-20T04:00:21.938Z,17.52
2019-04-20T04:05:23.534Z,17.87
2019-04-20T04:07:45.569Z,16.80
2019-04-20T04:10:23.205Z,17.77
2019-04-20T04:13:14.780Z,19.80
2019-04-20T04:15:50.188Z,17.25
2019-04-20T04:18:25.996Z,15.68
2019-04-20T04:20:54.127Z,17.92
2019-04-20T04:23:38.303Z,18.30
2019-04-20T04:26:10.395Z,17.10
2019-04-20T04:28:37.318Z,18.87
2019-04-20T04:36:10.543Z,16.73
2019-04-20T04:39:01.034Z,19.55
2019-04-20T04:41:20.221Z,17.12
2019-04-20T04:43:40.052Z,18.42
2019-04-20T04:45:55.411Z,20.52
2019-04-20T04:48:31.009Z,17.77
2019-04-20T04:51:02.720Z,17.45
2019-04-20T04:53:39.544Z,17.67
2019-04-20T04:56:03.038Z,16.73
2019-04-20T04:58:25.935Z,18.37
2019-04-20T05:01:01.406Z,16.95
2019-04-20T05:03:44.783Z,18.35
2019-04-20T05:06:13.354Z,19.48
2019-04-20T05:08:36.641Z,18.67
2019-04-20T05:11:00.520Z,19.20
2019-04-20T05:13:36.851Z,18.42
2019-04-20T05:16:13.428Z,17.65
2019-04-20T05:19:10.496Z,17.77
2019-04-20T05:21:30.331Z,19.30
2019-04-20T05:24:04.500Z,15.58
2019-04-20T05:28:58.978Z,17.95
2019-04-20T05:31:23.543Z,16.07
2019-04-20T05:34:15.753Z,15.58
2019-04-20T05:36:41.699Z,15.65
2019-04-20T05:41:41.986Z,17.02
2019-04-20T05:44:08.514Z,17.37
2019-04-20T05:46:56.654Z,15.63
2019-04-20T05:49:27.082Z,18.95
2019-04-20T05:51:54.657Z,12.82
2019-04-20T05:54:25.605Z,16.00
2019-04-20T05:56:53.866Z,16.27
2019-04-20T05:59:19.188Z,14.87
2019-04-20T06:01:59.119Z,17.77
2019-04-20T06:04:44.537Z,16.73
2019-04-20T06:06:55.413Z,16.42
2019-04-20T06:09:28.637Z,15.10
2019-04-20T06:12:14.085Z,20.88
2019-04-20T06:14:20.566Z,17.48
2019-04-20T06:17:02.944Z,16.62
2019-04-20T06:19:35.860Z,16.48
2019-04-20T06:22:24.684Z,19.15
2019-04-20T06:25:02.021Z,16.57
2019-04-20T06:27:34.194Z,14.15
2019-04-20T06:29:55.881Z,17.90
2019-04-20T06:33:12.843Z,14.68
2019-04-20T06:35:59.164Z,13.68
2019-04-20T06:38:29.645Z,12.73
2019-04-20T06:40:53.952Z,14.40
2019-04-20T06:43:06.210Z,11.57
2019-04-20T06:45:44.397Z,18.67
2019-04-20T06:48:20.380Z,14.63
2019-04-20T06:50:41.552Z,10.05
2019-04-20T06:53:20.749Z,10.70
2019-04-20T06:55:49.771Z,10.98
2019-04-20T06:58:36.096Z,12.88
2019-04-20T07:00:46.451Z,13.30
2019-04-20T07:03:30.993Z,13.10
2019-04-20T07:05:55.232Z,11.35
2019-04-20T07:08:33.317Z,13.65
2019-04-20T07:10:58.021Z,10.00
2019-04-20T07:13:14.881Z,11.95
2019-04-20T07:15:46.461Z,11.50
2019-04-20T07:18:31.121Z,13.25
2019-04-20T07:21:35.668Z,12.58
2019-04-20T07:23:48.232Z,9.68
2019-04-20T07:26:23.809Z,8.93
2019-04-20T07:28:52.798Z,8.83
2019-04-20T07:31:18.835Z,9.70
2019-04-20T07:33:52.412Z,13.32
2019-04-20T07:36:30.608Z,14.05
2019-04-20T07:38:57.943Z,11.18
2019-04-20T07:41:33.190Z,8.95
2019-04-20T07:44:03.389Z,11.43
2019-04-20T07:46:35.184Z,9.78
2019-04-20T07:48:54.290Z,9.13
2019-04-20T07:51:12.500Z,12.43
2019-04-20T07:53:58.646Z,12.43
2019-04-20T07:56:34.979Z,8.55
2019-04-20T07:58:44.235Z,9.43
2019-04-20T08:01:43.070Z,11.25
2019-04-20T08:04:09.302Z,10.08
2019-04-20T08:06:37.915Z,10.55
2019-04-20T08:09:18.402Z,11.10
2019-04-20T08:11:56.627Z,10.85
2019-04-20T08:14:24.175Z,11.75
2019-04-20T08:17:09.778Z,11.05
2019-04-20T08:19:23.143Z,10.60
2019-04-20T08:22:02.606Z,11.75
2019-04-20T08:24:21.327Z,8.65
2019-04-20T08:26:45.341Z,9.18
2019-04-20T08:29:23.900Z,11.80
2019-04-20T08:32:08.703Z,10.70
2019-04-20T08:34:44.375Z,9.28
2019-04-20T08:37:11.715Z,11.43
2019-04-20T08:42:18.660Z,11.30
2019-04-20T08:47:29.178Z,11.38
2019-04-20T08:50:13.685Z,13.10
2019-04-20T08:52:58.599Z,11.33
2019-04-20T08:55:04.945Z,12.55
2019-04-20T08:57:20.004Z,9.10
2019-04-20T08:59:52.480Z,10.63
2019-04-20T09:02:23.962Z,11.80
2019-04-20T09:05:00.546Z,10.18
2019-04-20T09:07:28.326Z,11.43
2019-04-20T09:10:21.875Z,9.88
2019-04-20T09:12:40.539Z,10.23
2019-04-20T09:14:57.332Z,7.97
2019-04-20T09:17:35.643Z,8.98
2019-04-20T09:20:07.030Z,10.05
2019-04-20T09:22:40.646Z,9.68
2019-04-20T09:27:40.788Z,12.25
2019-04-20T09:30:21.622Z,11.55
2019-04-20T09:32:56.611Z,10.95
2019-04-20T09:35:26.723Z,10.43
2019-04-20T09:38:00.243Z,11.97
2019-04-20T09:40:30.955Z,16.17
2019-04-20T09:42:53.799Z,12.15
2019-04-20T09:45:35.126Z,12.55
2019-04-20T09:47:56.686Z,11.50
2019-04-20T09:50:52.246Z,11.43
2019-04-20T09:53:16.970Z,8.15
2019-04-20T09:55:46.863Z,13.35
2019-04-20T09:58:13.558Z,11.18
2019-04-20T10:00:54.106Z,11.70
2019-04-20T10:03:12.897Z,10.78
2019-04-20T10:05:47.563Z,9.48
2019-04-20T10:08:15.570Z,12.13
2019-04-20T10:10:47.149Z,12.20
2019-04-20T10:13:17.741Z,9.63
2019-04-20T10:15:47.770Z,11.18
2019-04-20T10:18:19.489Z,10.78
2019-04-20T10:20:49.598Z,10.45
2019-04-20T10:23:18.591Z,10.40
2019-04-20T10:25:48.696Z,11.28
2019-04-20T10:28:17.622Z,10.90
2019-04-20T10:30:46.482Z,9.58
2019-04-20T10:33:15.529Z,11.28
2019-04-20T10:35:45.563Z,8.73
2019-04-20T10:38:15.982Z,13.00
2019-04-20T10:40:55.902Z,9.25
2019-04-20T10:43:16.338Z,9.45
2019-04-20T10:45:45.228Z,10.88
2019-04-20T10:48:15.146Z,12.85
2019-04-20T10:50:45.113Z,8.85
2019-04-20T10:53:14.104Z,11.45
2019-04-20T10:55:43.202Z,12.98
2019-04-20T10:58:13.511Z,10.18
2019-04-20T11:00:46.139Z,10.13
2019-04-20T11:03:17.621Z,11.55
2019-04-20T11:05:47.057Z,11.15
2019-04-20T11:08:16.824Z,10.50
2019-04-20T11:10:55.996Z,12.75
2019-04-20T11:13:17.236Z,9.10
2019-04-20T11:15:46.402Z,8.63
2019-04-20T11:18:15.558Z,9.93
2019-04-20T11:20:45.612Z,8.43
2019-04-20T11:23:14.475Z,9.10
2019-04-20T11:25:44.149Z,12.65
2019-04-20T11:28:14.279Z,11.45
2019-04-20T11:30:46.129Z,12.45
2019-04-20T11:33:16.146Z,14.33
2019-04-20T11:35:46.946Z,10.08
2019-04-20T11:38:17.454Z,12.55
2019-04-20T11:41:02.733Z,9.00
2019-04-20T11:43:19.875Z,7.90
2019-04-20T11:45:48.939Z,11.35
2019-04-20T11:48:19.089Z,10.38
2019-04-20T11:50:49.276Z,11.60
2019-04-20T11:53:19.376Z,9.85
2019-04-20T11:55:52.119Z,10.13
2019-04-20T11:58:21.799Z,12.60
2019-04-20T12:01:01.241Z,8.10
2019-04-20T12:03:31.404Z,9.43
2019-04-20T12:05:57.860Z,12.18
2019-04-20T12:08:25.397Z,8.83
2019-04-20T12:10:58.564Z,10.93
2019-04-20T12:13:24.954Z,9.88
2019-04-20T12:15:53.978Z,9.88
2019-04-20T12:18:23.368Z,11.75
2019-04-20T12:20:52.692Z,8.40
2019-04-20T12:23:22.315Z,8.78
2019-04-20T12:25:52.359Z,7.85
2019-04-20T12:28:21.987Z,8.23
2019-04-20T12:30:51.483Z,8.28
2019-04-20T12:33:20.316Z,8.93
2019-04-20T12:35:50.115Z,11.78
2019-04-20T12:38:19.225Z,7.47
2019-04-20T12:40:48.405Z,7.53
2019-04-20T12:43:17.463Z,6.20
2019-04-20T12:45:47.591Z,9.10
2019-04-20T12:48:17.621Z,8.28
2019-04-20T12:50:47.791Z,8.45
2019-04-20T12:53:17.095Z,6.78
2019-04-20T12:55:46.539Z,8.13
2019-04-20T12:58:16.806Z,9.25
2019-04-20T13:00:50.317Z,6.50
2019-04-20T13:03:19.524Z,8.58
2019-04-20T13:05:49.871Z,7.72
2019-04-20T13:08:29.540Z,7.75
2019-04-20T13:10:52.872Z,8.68
2019-04-20T13:13:40.816Z,8.68
2019-04-20T13:16:12.300Z,8.60
2019-04-20T13:18:43.367Z,6.15
2019-04-20T13:21:13.308Z,7.90
2019-04-20T13:23:42.736Z,8.90
2019-04-20T13:26:13.904Z,6.78
2019-04-20T13:28:43.330Z,7.78
2019-04-20T13:31:13.527Z,8.25
2019-04-20T13:33:43.205Z,12.68
2019-04-20T13:36:14.419Z,11.05
2019-04-20T13:38:44.120Z,8.88
2019-04-20T13:41:13.750Z,9.88
2019-04-20T13:43:43.824Z,10.78
2019-04-20T13:46:15.107Z,7.80
2019-04-20T13:48:46.833Z,8.45
2019-04-20T13:51:16.529Z,13.72
2019-04-20T13:53:48.540Z,10.23
2019-04-20T13:56:19.712Z,10.75
2019-04-20T13:58:50.118Z,11.08
2019-04-20T14:01:30.684Z,8.03
2019-04-20T14:04:10.708Z,5.17
2019-04-20T14:06:39.883Z,9.48
2019-04-20T14:09:09.829Z,8.75
2019-04-20T14:11:39.205Z,9.38
2019-04-20T14:14:08.425Z,7.03
2019-04-20T14:16:37.249Z,5.30
2019-04-20T14:19:07.186Z,6.83
2019-04-20T14:21:36.411Z,8.08
2019-04-20T14:24:07.278Z,6.67
2019-04-20T14:26:39.465Z,8.68
2019-04-20T14:29:12.658Z,6.60
2019-04-20T14:31:41.930Z,6.40
2019-04-20T14:34:10.946Z,7.10
2019-04-20T14:36:41.141Z,7.85
2019-04-20T14:39:10.168Z,6.85
2019-04-20T14:41:40.215Z,3.95
2019-04-20T14:44:09.967Z,4.42
2019-04-20T14:46:39.978Z,5.50
2019-04-20T14:49:08.869Z,6.55
2019-04-20T14:51:37.625Z,5.20
2019-04-20T14:54:07.512Z,4.60
2019-04-20T14:56:37.753Z,5.42
2019-04-20T14:59:19.890Z,6.65
2019-04-20T15:01:50.458Z,6.37
2019-04-20T15:04:24.656Z,5.10
2019-04-20T15:06:52.746Z,3.92
2019-04-20T15:09:21.491Z,6.95
2019-04-20T15:11:50.717Z,7.15
2019-04-20T15:14:22.858Z,6.72
2019-04-20T15:16:54.458Z,6.67
2019-04-20T15:19:39.702Z,7.45
2019-04-20T15:22:27.350Z,7.10
2019-04-20T15:24:56.191Z,6.55
2019-04-20T15:27:24.966Z,8.80
2019-04-20T15:29:54.046Z,7.22
2019-04-20T15:32:23.067Z,7.10
2019-04-20T15:34:53.044Z,5.20
2019-04-20T15:37:23.240Z,5.80
2019-04-20T15:39:52.843Z,7.08
2019-04-20T15:42:21.629Z,5.85
2019-04-20T15:44:51.417Z,8.73
2019-04-20T15:47:20.385Z,7.28
2019-04-20T15:49:49.806Z,8.08
2019-04-20T15:52:24.524Z,7.00
2019-04-20T15:54:49.709Z,19.17
2019-04-20T15:57:23.079Z,11.88
2019-04-20T15:59:49.022Z,13.20
2019-04-20T16:02:25.255Z,11.35
2019-04-20T16:05:12.352Z,8.75
2019-04-20T16:07:48.560Z,17.52
2019-04-20T16:10:14.999Z,10.00
2019-04-20T16:12:44.919Z,9.38
2019-04-20T16:15:13.817Z,18.67
2019-04-20T16:17:47.068Z,12.03
2019-04-20T16:20:20.085Z,14.33
2019-04-20T16:22:44.773Z,10.95
2019-04-20T16:25:15.217Z,11.45
2019-04-20T16:27:45.738Z,9.45
2019-04-20T16:30:17.948Z,10.75
2019-04-20T16:32:47.994Z,10.40
2019-04-20T16:35:18.486Z,12.53
2019-04-20T16:37:48.476Z,13.62
2019-04-20T16:40:17.747Z,17.48
2019-04-20T16:42:46.512Z,15.40
2019-04-20T16:45:17.068Z,14.33
2019-04-20T16:47:46.305Z,15.43
2019-04-20T16:50:15.309Z,16.35
2019-04-20T16:52:44.070Z,15.93
2019-04-20T16:55:13.020Z,14.70
2019-04-20T16:57:43.394Z,16.37
2019-04-20T17:00:13.675Z,17.50
2019-04-20T17:02:42.622Z,18.52
2019-04-20T17:05:11.837Z,15.28
2019-04-20T17:07:42.832Z,17.12
2019-04-20T17:10:13.885Z,14.87
2019-04-20T17:12:43.822Z,29.00
2019-04-20T17:15:13.995Z,15.50
2019-04-20T17:17:43.365Z,15.85
2019-04-20T17:20:13.823Z,17.60
2019-04-20T17:22:44.913Z,23.02
2019-04-20T17:25:16.819Z,15.93
2019-04-20T17:27:49.176Z,14.55
2019-04-20T17:30:26.726Z,15.63
2019-04-20T17:33:08.550Z,15.38
2019-04-20T17:35:47.295Z,17.30
2019-04-20T17:38:08.960Z,15.85
2019-04-20T17:41:01.344Z,17.65
2019-04-20T17:43:19.816Z,14.28
2019-04-20T17:45:50.360Z,16.30
2019-04-20T17:48:29.749Z,18.48
2019-04-20T17:51:04.634Z,10.90
2019-04-20T17:53:29.330Z,13.68
2019-04-20T17:55:50.021Z,13.35
2019-04-20T17:58:24.958Z,11.22
2019-04-20T18:01:08.675Z,13.88
2019-04-20T18:04:11.166Z,12.65
2019-04-20T18:06:32.386Z,14.73
2019-04-20T18:08:58.440Z,15.32
2019-04-20T18:11:20.105Z,12.82
2019-04-20T18:13:47.606Z,15.20
2019-04-20T18:16:45.052Z,15.68
2019-04-20T18:19:10.889Z,14.90
2019-04-20T18:21:39.617Z,15.40
2019-04-20T18:24:15.786Z,15.90
2019-04-20T18:26:52.380Z,17.52
2019-04-20T18:29:30.794Z,14.58
2019-04-20T18:31:45.071Z,31.90
2019-04-20T18:34:18.885Z,18.90
2019-04-20T18:36:48.257Z,14.73
2019-04-20T18:39:22.089Z,15.88
2019-04-20T18:41:53.177Z,15.08
2019-04-20T18:44:22.261Z,13.65
2019-04-20T18:47:12.512Z,14.87
2019-04-20T18:49:35.011Z,14.53
2019-04-20T18:51:49.676Z,14.40
2019-04-20T18:54:22.123Z,15.28
2019-04-20T18:56:52.559Z,14.95
2019-04-20T18:59:23.455Z,17.55
2019-04-20T19:01:50.908Z,18.65
2019-04-20T19:04:19.824Z,15.15
2019-04-20T19:06:49.924Z,14.28
2019-04-20T19:09:26.179Z,13.83
2019-04-20T19:11:56.508Z,16.85
2019-04-20T19:14:32.564Z,15.35
2019-04-20T19:17:09.471Z,16.55
2019-04-20T19:19:37.461Z,17.77
2019-04-20T19:21:59.219Z,17.05
2019-04-20T19:24:32.735Z,18.80
2019-04-20T19:27:03.493Z,17.25
2019-04-20T19:29:35.246Z,19.92
2019-04-20T19:32:19.455Z,25.37
2019-04-20T19:34:47.072Z,22.52
2019-04-20T19:37:15.600Z,20.62
2019-04-20T19:39:53.172Z,23.10
2019-04-20T19:42:27.711Z,23.20
2019-04-20T19:44:53.793Z,23.57
2019-04-20T19:47:28.415Z,23.85
2019-04-20T19:49:56.179Z,22.30
2019-04-20T19:52:40.511Z,20.48
2019-04-20T19:55:05.652Z,20.35
2019-04-20T19:57:32.252Z,17.37
2019-04-20T19:59:49.637Z,18.67
2019-04-20T20:02:16.331Z,17.45
2019-04-20T20:04:50.766Z,17.35
2019-04-20T20:07:21.976Z,17.98
2019-04-20T20:09:53.125Z,17.50
2019-04-20T20:19:12.361Z,19.30
2019-04-20T20:21:48.386Z,18.70
2019-04-20T20:24:04.204Z,18.00
2019-04-20T20:26:38.727Z,17.27
2019-04-20T20:29:14.597Z,17.17
2019-04-20T20:31:55.335Z,17.57
2019-04-20T20:34:15.719Z,18.70
2019-04-20T20:36:43.527Z,18.05
2019-04-20T20:39:15.966Z,18.40
2019-04-20T20:41:49.253Z,21.85
2019-04-20T20:44:24.315Z,22.52
2019-04-20T20:46:55.058Z,20.05
2019-04-20T20:49:31.358Z,21.68
2019-04-20T20:52:02.533Z,21.93
2019-04-20T20:54:28.621Z,22.70
2019-04-20T20:56:49.761Z,19.52
2019-04-20T20:59:26.764Z,19.70
2019-04-20T21:01:52.402Z,19.45
2019-04-20T21:04:15.590Z,18.80
2019-04-20T21:06:44.608Z,21.62
2019-04-20T21:09:14.453Z,21.82
2019-04-20T21:11:44.310Z,20.72
2019-04-20T21:14:19.898Z,19.42
2019-04-20T21:16:53.124Z,20.70
2019-04-20T21:19:29.644Z,20.17
2019-04-20T21:21:54.842Z,20.77
2019-04-20T21:24:31.433Z,19.50
2019-04-20T21:29:35.861Z,19.80
2019-04-20T21:32:08.163Z,21.05
2019-04-20T21:34:31.195Z,22.25
2019-04-20T21:37:07.370Z,24.92
2019-04-20T21:39:38.929Z,24.72
2019-04-20T21:42:09.453Z,23.47
2019-04-20T21:44:37.436Z,22.15
2019-04-20T21:47:03.435Z,23.30
2019-04-20T21:49:46.156Z,22.25
2019-04-20T21:52:10.600Z,22.73
2019-04-20T21:54:34.195Z,21.12
2019-04-20T21:57:05.765Z,22.65
2019-04-20T21:59:41.956Z,23.90
2019-04-20T22:02:12.894Z,28.20
2019-04-20T22:04:35.493Z,25.70
2019-04-20T22:07:04.996Z,28.95
2019-04-20T22:09:40.424Z,25.10
2019-04-20T22:12:07.662Z,28.70
2019-04-20T22:14:37.643Z,28.17
2019-04-20T22:17:07.836Z,32.42
2019-04-20T22:19:47.805Z,34.35
2019-04-20T22:22:22.790Z,39.65
2019-04-20T22:24:57.765Z,36.83
2019-04-20T22:27:20.390Z,35.43
2019-04-20T22:29:44.045Z,37.58
2019-04-20T22:32:16.497Z,35.48
2019-04-20T22:34:47.504Z,31.73
2019-04-20T22:37:21.015Z,29.18
2019-04-20T22:39:52.070Z,27.30
2019-04-20T22:42:18.286Z,32.50
2019-04-20T22:44:54.937Z,36.08
2019-04-20T22:47:23.290Z,30.85
2019-04-20T22:50:11.894Z,28.67
2019-04-20T22:52:36.228Z,28.83
2019-04-20T22:55:12.745Z,24.65
2019-04-20T22:57:38.779Z,27.73
2019-04-20T23:00:02.161Z,28.40
2019-04-20T23:02:26.253Z,24.25
2019-04-20T23:04:54.911Z,25.60
2019-04-20T23:07:23.695Z,21.97
2019-04-20T23:09:56.482Z,23.10
2019-04-20T23:12:26.963Z,23.67
2019-04-20T23:14:54.808Z,24.50
2019-04-20T23:17:33.544Z,20.85
2019-04-20T23:20:01.427Z,28.83
2019-04-20T23:22:36.831Z,22.50
2019-04-20T23:24:59.473Z,22.37
2019-04-20T23:27:32.117Z,24.40
2019-04-20T23:30:05.932Z,27.20
2019-04-20T23:32:33.915Z,27.58
2019-04-20T23:35:08.295Z,28.95
2019-04-20T23:37:36.504Z,29.00
2019-04-20T23:40:08.163Z,27.05
2019-04-20T23:42:46.003Z,30.80
2019-04-20T23:45:31.478Z,31.87
2019-04-20T23:48:16.271Z,30.72
2019-04-20T23:50:57.993Z,32.20
2019-04-20T23:53:32.966Z,30.90
2019-04-20T23:55:46.013Z,32.88
2019-04-20T23:58:16.432Z,27.22
